sensor_id;sensor_type;location;lat;lon;timestamp;pressure;altitude;pressure_sealevel;temperature;humidity
60920;BME280;59039;52.108;19.942;2023-09-08T00:01:22;101566.81;;;17.76;74.93
60920;BME280;59039;52.108;19.942;2023-09-08T00:03:47;101567.42;;;17.75;74.39
60920;BME280;59039;52.108;19.942;2023-09-08T00:06:12;101564.91;;;17.75;74.29
60920;BME280;59039;52.108;19.942;2023-09-08T00:08:37;101563.27;;;17.75;74.48
60920;BME280;59039;52.108;19.942;2023-09-08T00:11:03;101565.27;;;17.74;74.72
60920;BME280;59039;52.108;19.942;2023-09-08T00:13:28;101560.17;;;17.71;74.82
60920;BME280;59039;52.108;19.942;2023-09-08T00:15:53;101561.69;;;17.70;74.91
60920;BME280;59039;52.108;19.942;2023-09-08T00:18:18;101562.14;;;17.67;75.20
60920;BME280;59039;52.108;19.942;2023-09-08T00:20:43;101558.16;;;17.65;75.05
60920;BME280;59039;52.108;19.942;2023-09-08T00:23:09;101559.37;;;17.63;75.39
60920;BME280;59039;52.108;19.942;2023-09-08T00:25:34;101551.11;;;17.61;75.51
60920;BME280;59039;52.108;19.942;2023-09-08T00:27:59;101550.26;;;17.59;75.63
60920;BME280;59039;52.108;19.942;2023-09-08T00:30:24;101550.23;;;17.57;74.96
60920;BME280;59039;52.108;19.942;2023-09-08T00:32:49;101549.06;;;17.57;74.97
60920;BME280;59039;52.108;19.942;2023-09-08T00:35:15;101547.69;;;17.56;75.17
60920;BME280;59039;52.108;19.942;2023-09-08T00:37:40;101548.02;;;17.54;75.42
60920;BME280;59039;52.108;19.942;2023-09-08T00:40:06;101553.74;;;17.52;75.60
60920;BME280;59039;52.108;19.942;2023-09-08T00:42:31;101553.47;;;17.50;75.81
60920;BME280;59039;52.108;19.942;2023-09-08T00:44:57;101553.64;;;17.47;75.71
60920;BME280;59039;52.108;19.942;2023-09-08T00:47:22;101551.07;;;17.44;75.64
60920;BME280;59039;52.108;19.942;2023-09-08T00:49:47;101549.93;;;17.40;75.66
60920;BME280;59039;52.108;19.942;2023-09-08T00:52:13;101547.19;;;17.37;75.88
60920;BME280;59039;52.108;19.942;2023-09-08T00:54:38;101549.04;;;17.34;75.87
60920;BME280;59039;52.108;19.942;2023-09-08T00:57:03;101552.16;;;17.32;75.79
60920;BME280;59039;52.108;19.942;2023-09-08T00:59:31;101550.89;;;17.30;76.00
60920;BME280;59039;52.108;19.942;2023-09-08T01:01:57;101548.38;;;17.28;75.87
60920;BME280;59039;52.108;19.942;2023-09-08T01:04:22;101545.70;;;17.27;75.72
60920;BME280;59039;52.108;19.942;2023-09-08T01:06:48;101544.20;;;17.26;75.89
60920;BME280;59039;52.108;19.942;2023-09-08T01:09:14;101544.13;;;17.25;76.35
60920;BME280;59039;52.108;19.942;2023-09-08T01:11:39;101545.02;;;17.24;76.23
60920;BME280;59039;52.108;19.942;2023-09-08T01:14:05;101542.58;;;17.21;76.30
60920;BME280;59039;52.108;19.942;2023-09-08T01:16:30;101541.44;;;17.18;75.83
60920;BME280;59039;52.108;19.942;2023-09-08T01:18:56;101541.34;;;17.16;76.10
60920;BME280;59039;52.108;19.942;2023-09-08T01:22:13;101538.86;;;17.13;76.39
60920;BME280;59039;52.108;19.942;2023-09-08T01:27:18;101537.73;;;17.07;76.17
60920;BME280;59039;52.108;19.942;2023-09-08T01:29:45;101535.16;;;17.05;76.64
60920;BME280;59039;52.108;19.942;2023-09-08T01:32:12;101537.23;;;17.03;76.65
60920;BME280;59039;52.108;19.942;2023-09-08T01:34:38;101537.48;;;17.01;76.83
60920;BME280;59039;52.108;19.942;2023-09-08T01:37:03;101535.52;;;16.99;76.92
60920;BME280;59039;52.108;19.942;2023-09-08T01:39:28;101534.83;;;16.97;76.80
60920;BME280;59039;52.108;19.942;2023-09-08T01:41:53;101533.18;;;16.94;76.87
60920;BME280;59039;52.108;19.942;2023-09-08T01:44:19;101531.39;;;16.92;77.08
60920;BME280;59039;52.108;19.942;2023-09-08T01:46:44;101532.14;;;16.89;76.95
60920;BME280;59039;52.108;19.942;2023-09-08T01:49:09;101528.98;;;16.88;76.85
60920;BME280;59039;52.108;19.942;2023-09-08T01:51:35;101534.45;;;16.87;76.96
60920;BME280;59039;52.108;19.942;2023-09-08T01:54:00;101535.95;;;16.85;76.96
60920;BME280;59039;52.108;19.942;2023-09-08T01:56:25;101533.37;;;16.84;77.16
60920;BME280;59039;52.108;19.942;2023-09-08T01:58:50;101535.46;;;16.83;76.96
60920;BME280;59039;52.108;19.942;2023-09-08T02:01:15;101535.66;;;16.81;77.05
60920;BME280;59039;52.108;19.942;2023-09-08T02:03:41;101536.29;;;16.80;76.88
60920;BME280;59039;52.108;19.942;2023-09-08T02:06:06;101534.20;;;16.79;76.91
60920;BME280;59039;52.108;19.942;2023-09-08T02:08:31;101532.16;;;16.78;76.68
60920;BME280;59039;52.108;19.942;2023-09-08T02:10:56;101529.59;;;16.76;77.02
60920;BME280;59039;52.108;19.942;2023-09-08T02:13:21;101530.23;;;16.74;77.18
60920;BME280;59039;52.108;19.942;2023-09-08T02:15:47;101522.48;;;16.71;76.89
60920;BME280;59039;52.108;19.942;2023-09-08T02:18:12;101524.45;;;16.68;76.95
60920;BME280;59039;52.108;19.942;2023-09-08T02:20:37;101524.66;;;16.66;77.17
60920;BME280;59039;52.108;19.942;2023-09-08T02:23:06;101522.45;;;16.62;77.34
60920;BME280;59039;52.108;19.942;2023-09-08T02:25:32;101523.00;;;16.61;77.39
60920;BME280;59039;52.108;19.942;2023-09-08T02:27:57;101522.30;;;16.59;77.28
60920;BME280;59039;52.108;19.942;2023-09-08T02:30:22;101522.02;;;16.56;77.13
60920;BME280;59039;52.108;19.942;2023-09-08T02:32:48;101523.11;;;16.55;77.16
60920;BME280;59039;52.108;19.942;2023-09-08T02:35:13;101523.42;;;16.52;77.00
60920;BME280;59039;52.108;19.942;2023-09-08T02:37:38;101518.06;;;16.51;77.03
60920;BME280;59039;52.108;19.942;2023-09-08T02:40:05;101515.59;;;16.50;77.13
60920;BME280;59039;52.108;19.942;2023-09-08T02:42:30;101510.41;;;16.49;77.36
60920;BME280;59039;52.108;19.942;2023-09-08T02:44:55;101506.73;;;16.47;77.28
60920;BME280;59039;52.108;19.942;2023-09-08T02:47:21;101505.08;;;16.46;77.23
60920;BME280;59039;52.108;19.942;2023-09-08T02:49:46;101506.69;;;16.44;77.16
60920;BME280;59039;52.108;19.942;2023-09-08T02:52:11;101504.04;;;16.42;77.29
60920;BME280;59039;52.108;19.942;2023-09-08T02:54:36;101503.00;;;16.40;77.36
60920;BME280;59039;52.108;19.942;2023-09-08T02:57:01;101503.27;;;16.39;77.34
60920;BME280;59039;52.108;19.942;2023-09-08T02:59:27;101505.88;;;16.37;77.46
60920;BME280;59039;52.108;19.942;2023-09-08T03:01:52;101501.92;;;16.34;77.57
60920;BME280;59039;52.108;19.942;2023-09-08T03:04:17;101503.77;;;16.33;77.36
60920;BME280;59039;52.108;19.942;2023-09-08T03:06:42;101506.47;;;16.31;77.53
60920;BME280;59039;52.108;19.942;2023-09-08T03:09:08;101507.04;;;16.29;77.26
60920;BME280;59039;52.108;19.942;2023-09-08T03:11:33;101506.45;;;16.28;77.32
60920;BME280;59039;52.108;19.942;2023-09-08T03:13:58;101502.55;;;16.25;77.24
60920;BME280;59039;52.108;19.942;2023-09-08T03:16:24;101500.47;;;16.24;77.17
60920;BME280;59039;52.108;19.942;2023-09-08T03:18:49;101500.92;;;16.23;77.29
60920;BME280;59039;52.108;19.942;2023-09-08T03:21:14;101500.02;;;16.21;76.95
60920;BME280;59039;52.108;19.942;2023-09-08T03:23:41;101501.18;;;16.19;77.32
60920;BME280;59039;52.108;19.942;2023-09-08T03:26:07;101495.98;;;16.15;77.15
60920;BME280;59039;52.108;19.942;2023-09-08T03:28:34;101498.36;;;16.11;77.37
60920;BME280;59039;52.108;19.942;2023-09-08T03:31:03;101493.31;;;16.09;77.33
60920;BME280;59039;52.108;19.942;2023-09-08T03:33:29;101495.54;;;16.07;77.61
60920;BME280;59039;52.108;19.942;2023-09-08T03:35:54;101495.46;;;16.06;77.50
60920;BME280;59039;52.108;19.942;2023-09-08T03:38:19;101493.81;;;16.04;77.55
60920;BME280;59039;52.108;19.942;2023-09-08T03:40:44;101497.00;;;16.03;77.71
60920;BME280;59039;52.108;19.942;2023-09-08T03:43:10;101495.45;;;16.03;77.65
60920;BME280;59039;52.108;19.942;2023-09-08T03:45:35;101495.88;;;16.00;77.50
60920;BME280;59039;52.108;19.942;2023-09-08T03:48:00;101498.89;;;15.98;77.56
60920;BME280;59039;52.108;19.942;2023-09-08T03:50:25;101500.91;;;15.96;77.53
60920;BME280;59039;52.108;19.942;2023-09-08T03:52:51;101498.94;;;15.92;77.71
60920;BME280;59039;52.108;19.942;2023-09-08T03:55:16;101498.77;;;15.89;77.61
60920;BME280;59039;52.108;19.942;2023-09-08T03:57:41;101499.51;;;15.85;77.66
60920;BME280;59039;52.108;19.942;2023-09-08T04:00:07;101500.73;;;15.82;77.65
60920;BME280;59039;52.108;19.942;2023-09-08T04:02:32;101507.33;;;15.80;77.66
60920;BME280;59039;52.108;19.942;2023-09-08T04:04:58;101506.02;;;15.79;77.86
60920;BME280;59039;52.108;19.942;2023-09-08T04:07:23;101504.59;;;15.77;77.85
60920;BME280;59039;52.108;19.942;2023-09-08T04:09:48;101509.79;;;15.74;77.75
60920;BME280;59039;52.108;19.942;2023-09-08T04:12:13;101501.91;;;15.71;77.91
60920;BME280;59039;52.108;19.942;2023-09-08T04:14:39;101500.95;;;15.68;77.88
60920;BME280;59039;52.108;19.942;2023-09-08T04:17:04;101497.95;;;15.65;77.98
60920;BME280;59039;52.108;19.942;2023-09-08T04:19:29;101498.56;;;15.63;78.03
60920;BME280;59039;52.108;19.942;2023-09-08T04:21:54;101497.47;;;15.59;78.05
60920;BME280;59039;52.108;19.942;2023-09-08T04:24:19;101491.61;;;15.58;78.22
60920;BME280;59039;52.108;19.942;2023-09-08T04:26:45;101495.91;;;15.57;78.30
60920;BME280;59039;52.108;19.942;2023-09-08T04:29:10;101497.02;;;15.55;78.23
60920;BME280;59039;52.108;19.942;2023-09-08T04:31:35;101498.58;;;15.54;78.27
60920;BME280;59039;52.108;19.942;2023-09-08T04:34:00;101500.08;;;15.54;78.40
60920;BME280;59039;52.108;19.942;2023-09-08T04:36:26;101499.55;;;15.53;78.35
60920;BME280;59039;52.108;19.942;2023-09-08T04:38:51;101492.76;;;15.54;78.67
60920;BME280;59039;52.108;19.942;2023-09-08T04:41:16;101497.78;;;15.55;78.56
60920;BME280;59039;52.108;19.942;2023-09-08T04:43:41;101493.65;;;15.55;78.48
60920;BME280;59039;52.108;19.942;2023-09-08T04:46:06;101495.55;;;15.58;78.63
60920;BME280;59039;52.108;19.942;2023-09-08T04:48:32;101495.83;;;15.61;78.58
60920;BME280;59039;52.108;19.942;2023-09-08T04:50:57;101494.83;;;15.63;78.70
60920;BME280;59039;52.108;19.942;2023-09-08T04:53:22;101496.88;;;15.67;78.53
60920;BME280;59039;52.108;19.942;2023-09-08T04:55:47;101493.96;;;15.68;78.59
60920;BME280;59039;52.108;19.942;2023-09-08T04:58:13;101494.63;;;15.71;78.56
60920;BME280;59039;52.108;19.942;2023-09-08T05:00:38;101494.86;;;15.74;78.46
60920;BME280;59039;52.108;19.942;2023-09-08T05:03:03;101494.73;;;15.77;78.44
60920;BME280;59039;52.108;19.942;2023-09-08T05:05:29;101493.17;;;15.79;78.09
60920;BME280;59039;52.108;19.942;2023-09-08T05:07:54;101492.37;;;15.83;78.21
60920;BME280;59039;52.108;19.942;2023-09-08T05:10:19;101488.56;;;15.89;78.08
60920;BME280;59039;52.108;19.942;2023-09-08T05:12:44;101488.39;;;15.94;78.31
60920;BME280;59039;52.108;19.942;2023-09-08T05:15:09;101485.63;;;15.99;78.22
60920;BME280;59039;52.108;19.942;2023-09-08T05:17:35;101483.26;;;16.04;78.22
60920;BME280;59039;52.108;19.942;2023-09-08T05:20:00;101480.18;;;16.08;78.23
60920;BME280;59039;52.108;19.942;2023-09-08T05:22:25;101481.16;;;16.15;78.44
60920;BME280;59039;52.108;19.942;2023-09-08T05:24:50;101482.63;;;16.21;78.21
60920;BME280;59039;52.108;19.942;2023-09-08T05:27:15;101478.31;;;16.29;78.25
60920;BME280;59039;52.108;19.942;2023-09-08T05:29:41;101479.13;;;16.37;78.28
60920;BME280;59039;52.108;19.942;2023-09-08T05:32:06;101480.29;;;16.45;78.31
60920;BME280;59039;52.108;19.942;2023-09-08T05:34:31;101481.09;;;16.53;78.40
60920;BME280;59039;52.108;19.942;2023-09-08T05:36:56;101481.75;;;16.62;78.60
60920;BME280;59039;52.108;19.942;2023-09-08T05:39:21;101481.73;;;16.70;78.52
60920;BME280;59039;52.108;19.942;2023-09-08T05:41:47;101478.27;;;16.79;78.17
60920;BME280;59039;52.108;19.942;2023-09-08T05:44:12;101482.20;;;16.88;78.42
60920;BME280;59039;52.108;19.942;2023-09-08T05:46:37;101485.60;;;16.97;78.51
60920;BME280;59039;52.108;19.942;2023-09-08T05:49:02;101483.76;;;17.05;78.37
60920;BME280;59039;52.108;19.942;2023-09-08T05:51:28;101481.23;;;17.13;78.21
60920;BME280;59039;52.108;19.942;2023-09-08T05:53:53;101483.86;;;17.20;78.14
60920;BME280;59039;52.108;19.942;2023-09-08T05:56:19;101483.89;;;17.28;78.02
60920;BME280;59039;52.108;19.942;2023-09-08T05:58:44;101483.81;;;17.37;78.18
60920;BME280;59039;52.108;19.942;2023-09-08T06:01:09;101483.07;;;17.44;78.06
60920;BME280;59039;52.108;19.942;2023-09-08T06:03:35;101485.85;;;17.48;78.05
60920;BME280;59039;52.108;19.942;2023-09-08T06:06:00;101482.52;;;17.52;78.00
60920;BME280;59039;52.108;19.942;2023-09-08T06:08:25;101484.39;;;17.56;78.15
60920;BME280;59039;52.108;19.942;2023-09-08T06:10:50;101483.36;;;17.62;78.07
60920;BME280;59039;52.108;19.942;2023-09-08T06:13:16;101483.92;;;17.68;78.19
60920;BME280;59039;52.108;19.942;2023-09-08T06:15:41;101484.35;;;17.72;78.19
60920;BME280;59039;52.108;19.942;2023-09-08T06:18:06;101488.64;;;17.77;78.32
60920;BME280;59039;52.108;19.942;2023-09-08T06:20:31;101484.55;;;17.81;78.36
60920;BME280;59039;52.108;19.942;2023-09-08T06:22:57;101484.56;;;17.85;78.35
60920;BME280;59039;52.108;19.942;2023-09-08T06:25:22;101480.11;;;17.90;78.39
60920;BME280;59039;52.108;19.942;2023-09-08T06:27:47;101482.63;;;17.98;78.50
60920;BME280;59039;52.108;19.942;2023-09-08T06:30:12;101477.54;;;18.05;78.70
60920;BME280;59039;52.108;19.942;2023-09-08T06:32:38;101478.10;;;18.13;78.60
60920;BME280;59039;52.108;19.942;2023-09-08T06:35:03;101476.23;;;18.21;78.43
60920;BME280;59039;52.108;19.942;2023-09-08T06:37:28;101476.67;;;18.30;78.24
60920;BME280;59039;52.108;19.942;2023-09-08T06:39:54;101474.40;;;18.38;78.17
60920;BME280;59039;52.108;19.942;2023-09-08T06:42:19;101478.38;;;18.47;78.08
60920;BME280;59039;52.108;19.942;2023-09-08T06:44:45;101479.30;;;18.57;77.96
60920;BME280;59039;52.108;19.942;2023-09-08T06:47:10;101481.79;;;18.67;77.75
60920;BME280;59039;52.108;19.942;2023-09-08T06:49:35;101479.23;;;18.79;77.69
60920;BME280;59039;52.108;19.942;2023-09-08T06:52:00;101480.16;;;18.92;77.56
60920;BME280;59039;52.108;19.942;2023-09-08T06:54:25;101478.05;;;19.07;77.24
60920;BME280;59039;52.108;19.942;2023-09-08T06:56:51;101478.06;;;19.22;76.95
60920;BME280;59039;52.108;19.942;2023-09-08T06:59:16;101480.76;;;19.36;76.09
60920;BME280;59039;52.108;19.942;2023-09-08T07:01:41;101478.38;;;19.48;75.78
60920;BME280;59039;52.108;19.942;2023-09-08T07:04:06;101477.99;;;19.59;75.48
60920;BME280;59039;52.108;19.942;2023-09-08T07:06:31;101477.52;;;19.67;75.38
60920;BME280;59039;52.108;19.942;2023-09-08T07:08:57;101474.13;;;19.74;75.23
60920;BME280;59039;52.108;19.942;2023-09-08T07:11:22;101474.02;;;19.81;74.77
60920;BME280;59039;52.108;19.942;2023-09-08T07:13:47;101475.41;;;19.86;74.61
60920;BME280;59039;52.108;19.942;2023-09-08T07:16:12;101476.13;;;19.92;74.69
60920;BME280;59039;52.108;19.942;2023-09-08T07:18:38;101477.23;;;19.98;74.45
60920;BME280;59039;52.108;19.942;2023-09-08T07:21:03;101476.52;;;20.05;74.55
60920;BME280;59039;52.108;19.942;2023-09-08T07:23:29;101474.20;;;20.12;74.38
60920;BME280;59039;52.108;19.942;2023-09-08T07:25:54;101473.52;;;20.19;73.97
60920;BME280;59039;52.108;19.942;2023-09-08T07:28:19;101478.98;;;20.25;73.95
60920;BME280;59039;52.108;19.942;2023-09-08T07:30:44;101480.33;;;20.31;73.83
60920;BME280;59039;52.108;19.942;2023-09-08T07:33:10;101481.11;;;20.35;73.65
60920;BME280;59039;52.108;19.942;2023-09-08T07:35:39;101478.46;;;20.38;73.64
60920;BME280;59039;52.108;19.942;2023-09-08T07:38:06;101476.77;;;20.41;73.45
60920;BME280;59039;52.108;19.942;2023-09-08T07:40:32;101477.45;;;20.44;73.37
60920;BME280;59039;52.108;19.942;2023-09-08T07:42:58;101476.70;;;20.48;73.46
60920;BME280;59039;52.108;19.942;2023-09-08T07:45:23;101478.75;;;20.50;73.39
60920;BME280;59039;52.108;19.942;2023-09-08T07:47:48;101475.34;;;20.54;72.84
60920;BME280;59039;52.108;19.942;2023-09-08T07:50:18;101479.16;;;20.58;72.57
60920;BME280;59039;52.108;19.942;2023-09-08T07:52:44;101477.58;;;20.61;72.54
60920;BME280;59039;52.108;19.942;2023-09-08T07:55:09;101476.59;;;20.66;72.78
60920;BME280;59039;52.108;19.942;2023-09-08T07:57:35;101473.77;;;20.70;72.61
60920;BME280;59039;52.108;19.942;2023-09-08T08:00:01;101474.35;;;20.74;72.55
60920;BME280;59039;52.108;19.942;2023-09-08T08:02:26;101471.59;;;20.76;72.17
60920;BME280;59039;52.108;19.942;2023-09-08T08:04:51;101472.98;;;20.80;72.02
60920;BME280;59039;52.108;19.942;2023-09-08T08:07:16;101471.80;;;20.85;72.02
60920;BME280;59039;52.108;19.942;2023-09-08T08:09:41;101472.56;;;20.90;72.00
60920;BME280;59039;52.108;19.942;2023-09-08T08:12:07;101468.80;;;20.95;71.99
60920;BME280;59039;52.108;19.942;2023-09-08T08:14:32;101468.22;;;21.01;72.09
60920;BME280;59039;52.108;19.942;2023-09-08T08:16:57;101468.09;;;21.06;72.19
60920;BME280;59039;52.108;19.942;2023-09-08T08:19:22;101467.84;;;21.11;71.93
60920;BME280;59039;52.108;19.942;2023-09-08T08:21:47;101468.91;;;21.16;71.96
60920;BME280;59039;52.108;19.942;2023-09-08T08:24:13;101473.67;;;21.22;71.81
60920;BME280;59039;52.108;19.942;2023-09-08T08:26:38;101470.48;;;21.26;71.77
60920;BME280;59039;52.108;19.942;2023-09-08T08:29:03;101475.42;;;21.33;71.65
60920;BME280;59039;52.108;19.942;2023-09-08T08:31:28;101473.90;;;21.37;70.46
60920;BME280;59039;52.108;19.942;2023-09-08T08:33:54;101475.59;;;21.44;70.68
60920;BME280;59039;52.108;19.942;2023-09-08T08:36:19;101473.67;;;21.50;70.38
60920;BME280;59039;52.108;19.942;2023-09-08T08:38:44;101472.45;;;21.58;70.20
60920;BME280;59039;52.108;19.942;2023-09-08T08:41:09;101472.42;;;21.65;70.15
60920;BME280;59039;52.108;19.942;2023-09-08T08:43:34;101469.83;;;21.71;69.69
60920;BME280;59039;52.108;19.942;2023-09-08T08:46:02;101466.31;;;21.77;69.60
60920;BME280;59039;52.108;19.942;2023-09-08T08:48:29;101470.88;;;21.83;69.73
60920;BME280;59039;52.108;19.942;2023-09-08T08:50:55;101465.84;;;21.88;69.61
60920;BME280;59039;52.108;19.942;2023-09-08T08:53:21;101465.80;;;21.95;69.83
60920;BME280;59039;52.108;19.942;2023-09-08T08:55:46;101463.42;;;22.00;69.43
60920;BME280;59039;52.108;19.942;2023-09-08T08:58:14;101461.85;;;22.05;69.18
60920;BME280;59039;52.108;19.942;2023-09-08T09:00:39;101460.41;;;22.08;68.65
60920;BME280;59039;52.108;19.942;2023-09-08T09:03:05;101456.43;;;22.14;68.40
60920;BME280;59039;52.108;19.942;2023-09-08T09:05:32;101457.65;;;22.18;68.40
60920;BME280;59039;52.108;19.942;2023-09-08T09:07:58;101457.95;;;22.23;68.31
60920;BME280;59039;52.108;19.942;2023-09-08T09:10:23;101456.94;;;22.26;68.20
60920;BME280;59039;52.108;19.942;2023-09-08T09:12:49;101452.23;;;22.30;67.58
60920;BME280;59039;52.108;19.942;2023-09-08T09:15:14;101453.21;;;22.34;67.17
60920;BME280;59039;52.108;19.942;2023-09-08T09:17:39;101453.95;;;22.38;66.75
60920;BME280;59039;52.108;19.942;2023-09-08T09:20:14;101447.83;;;22.42;66.55
60920;BME280;59039;52.108;19.942;2023-09-08T09:22:40;101447.85;;;22.46;65.37
60920;BME280;59039;52.108;19.942;2023-09-08T09:25:05;101445.86;;;22.51;65.47
60920;BME280;59039;52.108;19.942;2023-09-08T09:27:31;101442.76;;;22.56;65.24
60920;BME280;59039;52.108;19.942;2023-09-08T09:29:58;101439.58;;;22.61;64.78
60920;BME280;59039;52.108;19.942;2023-09-08T09:32:24;101434.09;;;22.64;64.42
60920;BME280;59039;52.108;19.942;2023-09-08T09:34:51;101432.17;;;22.69;63.79
60920;BME280;59039;52.108;19.942;2023-09-08T09:37:17;101431.37;;;22.73;64.01
60920;BME280;59039;52.108;19.942;2023-09-08T09:39:54;101432.36;;;22.77;64.37
60920;BME280;59039;52.108;19.942;2023-09-08T09:42:22;101430.02;;;22.80;63.86
60920;BME280;59039;52.108;19.942;2023-09-08T09:44:48;101426.91;;;22.83;63.69
60920;BME280;59039;52.108;19.942;2023-09-08T09:47:14;101426.86;;;22.87;63.53
60920;BME280;59039;52.108;19.942;2023-09-08T09:49:47;101426.24;;;22.91;62.88
60920;BME280;59039;52.108;19.942;2023-09-08T09:52:14;101424.84;;;22.94;62.90
60920;BME280;59039;52.108;19.942;2023-09-08T09:54:45;101423.55;;;22.97;62.93
60920;BME280;59039;52.108;19.942;2023-09-08T09:57:12;101416.86;;;22.98;62.26
60920;BME280;59039;52.108;19.942;2023-09-08T09:59:42;101417.19;;;23.01;62.33
60920;BME280;59039;52.108;19.942;2023-09-08T10:02:18;101415.91;;;23.04;62.42
60920;BME280;59039;52.108;19.942;2023-09-08T10:04:43;101416.63;;;23.07;61.08
60920;BME280;59039;52.108;19.942;2023-09-08T10:07:09;101414.72;;;23.10;60.95
60920;BME280;59039;52.108;19.942;2023-09-08T10:09:37;101415.14;;;23.13;60.76
60920;BME280;59039;52.108;19.942;2023-09-08T10:12:08;101415.70;;;23.18;59.61
60920;BME280;59039;52.108;19.942;2023-09-08T10:14:40;101411.25;;;23.25;59.51
60920;BME280;59039;52.108;19.942;2023-09-08T10:17:09;101410.30;;;23.33;58.93
60920;BME280;59039;52.108;19.942;2023-09-08T10:19:37;101408.42;;;23.39;58.07
60920;BME280;59039;52.108;19.942;2023-09-08T10:22:03;101407.71;;;23.47;58.58
60920;BME280;59039;52.108;19.942;2023-09-08T10:24:35;101409.34;;;23.53;57.95
60920;BME280;59039;52.108;19.942;2023-09-08T10:27:09;101404.84;;;23.59;57.01
60920;BME280;59039;52.108;19.942;2023-09-08T10:29:36;101403.03;;;23.64;56.53
60920;BME280;59039;52.108;19.942;2023-09-08T10:32:02;101400.75;;;23.69;57.01
60920;BME280;59039;52.108;19.942;2023-09-08T10:34:28;101397.28;;;23.72;56.60
60920;BME280;59039;52.108;19.942;2023-09-08T10:36:55;101395.35;;;23.75;55.93
60920;BME280;59039;52.108;19.942;2023-09-08T10:39:34;101394.90;;;23.80;54.52
60920;BME280;59039;52.108;19.942;2023-09-08T10:44:55;101388.34;;;23.90;55.55
60920;BME280;59039;52.108;19.942;2023-09-08T10:47:41;101384.86;;;23.93;55.50
60920;BME280;59039;52.108;19.942;2023-09-08T10:50:16;101381.86;;;23.96;55.19
60920;BME280;59039;52.108;19.942;2023-09-08T10:52:42;101377.77;;;23.99;54.10
60920;BME280;59039;52.108;19.942;2023-09-08T10:55:07;101378.33;;;24.03;54.55
60920;BME280;59039;52.108;19.942;2023-09-08T10:57:33;101375.58;;;24.06;54.32
60920;BME280;59039;52.108;19.942;2023-09-08T11:00:02;101369.70;;;24.10;54.43
60920;BME280;59039;52.108;19.942;2023-09-08T11:02:38;101370.79;;;24.14;54.10
60920;BME280;59039;52.108;19.942;2023-09-08T11:05:12;101371.54;;;24.18;53.96
60920;BME280;59039;52.108;19.942;2023-09-08T11:07:39;101370.84;;;24.20;53.74
60920;BME280;59039;52.108;19.942;2023-09-08T11:10:05;101366.90;;;24.23;54.33
60920;BME280;59039;52.108;19.942;2023-09-08T11:12:31;101368.96;;;24.25;54.37
60920;BME280;59039;52.108;19.942;2023-09-08T11:14:57;101372.14;;;24.27;53.67
60920;BME280;59039;52.108;19.942;2023-09-08T11:17:26;101372.48;;;24.27;53.18
60920;BME280;59039;52.108;19.942;2023-09-08T11:19:51;101368.94;;;24.25;52.52
60920;BME280;59039;52.108;19.942;2023-09-08T11:22:17;101369.91;;;24.25;52.52
60920;BME280;59039;52.108;19.942;2023-09-08T11:24:44;101368.60;;;24.24;52.68
60920;BME280;59039;52.108;19.942;2023-09-08T11:27:11;101368.90;;;24.23;52.67
60920;BME280;59039;52.108;19.942;2023-09-08T11:29:37;101369.73;;;24.23;52.58
60920;BME280;59039;52.108;19.942;2023-09-08T11:32:03;101364.52;;;24.22;52.95
60920;BME280;59039;52.108;19.942;2023-09-08T11:34:28;101360.88;;;24.21;52.96
60920;BME280;59039;52.108;19.942;2023-09-08T11:36:53;101357.25;;;24.19;52.94
60920;BME280;59039;52.108;19.942;2023-09-08T11:39:18;101356.88;;;24.18;52.94
60920;BME280;59039;52.108;19.942;2023-09-08T11:41:44;101358.70;;;24.15;52.86
60920;BME280;59039;52.108;19.942;2023-09-08T11:44:15;101352.51;;;24.14;53.21
60920;BME280;59039;52.108;19.942;2023-09-08T11:46:41;101349.27;;;24.11;53.47
60920;BME280;59039;52.108;19.942;2023-09-08T11:49:06;101346.08;;;24.09;53.68
60920;BME280;59039;52.108;19.942;2023-09-08T11:51:31;101341.81;;;24.08;53.95
60920;BME280;59039;52.108;19.942;2023-09-08T12:00:04;101333.24;;;24.04;53.95
60920;BME280;59039;52.108;19.942;2023-09-08T12:02:33;101326.36;;;24.02;53.71
60920;BME280;59039;52.108;19.942;2023-09-08T12:04:59;101324.46;;;24.02;53.80
60920;BME280;59039;52.108;19.942;2023-09-08T12:07:24;101322.67;;;24.01;54.08
60920;BME280;59039;52.108;19.942;2023-09-08T12:09:49;101319.67;;;24.01;54.07
60920;BME280;59039;52.108;19.942;2023-09-08T12:12:15;101317.20;;;24.02;53.19
60920;BME280;59039;52.108;19.942;2023-09-08T12:14:41;101312.94;;;24.04;53.19
60920;BME280;59039;52.108;19.942;2023-09-08T12:17:06;101308.80;;;24.07;52.93
60920;BME280;59039;52.108;19.942;2023-09-08T12:19:32;101307.19;;;24.09;53.16
60920;BME280;59039;52.108;19.942;2023-09-08T12:21:59;101303.63;;;24.11;53.48
60920;BME280;59039;52.108;19.942;2023-09-08T12:27:12;101297.39;;;24.14;53.38
60920;BME280;59039;52.108;19.942;2023-09-08T12:29:37;101296.73;;;24.15;53.26
60920;BME280;59039;52.108;19.942;2023-09-08T12:32:03;101292.99;;;24.17;53.06
60920;BME280;59039;52.108;19.942;2023-09-08T12:34:28;101293.86;;;24.22;52.99
60920;BME280;59039;52.108;19.942;2023-09-08T12:36:55;101291.62;;;24.26;53.52
60920;BME280;59039;52.108;19.942;2023-09-08T12:39:20;101290.34;;;24.30;53.80
60920;BME280;59039;52.108;19.942;2023-09-08T12:41:45;101286.66;;;24.32;53.60
60920;BME280;59039;52.108;19.942;2023-09-08T12:44:11;101286.01;;;24.34;53.16
60920;BME280;59039;52.108;19.942;2023-09-08T12:46:36;101283.55;;;24.35;52.71
60920;BME280;59039;52.108;19.942;2023-09-08T12:49:01;101286.80;;;24.37;52.98